Tilton, Kentucky
Current Conditions -  °F | °C
As of 9:35 AM on Thursday 30 Oct 2014 (Local Time) from KFGX Reporting Station
Overcast Overcast  
Wind Chill: 43°   Ceiling: 3900
Heat Index: 43°   Visibility: 10mi
Dew Point: 38°   Wind: 0mph
Humidity: 83%   Direction: NA
Pressure: 30.18"   Gusts: NA
Location:  38.436°N, 83.6931°W
Report Text: KFGX 301335Z AUTO 00000KT 10SM OVC039 06/04 A3018 RMK AO2 T00620035
Loading
Personal Weather Stations






























Interactive Weather Map
Tropical Storm Tracking
New forecast layout! Learn more

10-Day Weather Forecast

Advertisements
Track Severe Weather on mobile